createdAt,value
2022-08-19T00:01:52.950Z,100136.82
2022-08-19T00:04:41.901Z,100127.38
2022-08-19T00:07:30.526Z,100130.15
2022-08-19T00:10:20.497Z,100131.83
2022-08-19T00:13:08.788Z,100135.66
2022-08-19T00:15:59.056Z,100140.83
2022-08-19T00:18:47.669Z,100143.59
2022-08-19T00:21:38.764Z,100143.38
2022-08-19T00:24:28.585Z,100142.34
2022-08-19T00:27:26.239Z,100143.18
2022-08-19T00:30:15.917Z,100135.92
2022-08-19T00:33:04.445Z,100139.20
2022-08-19T00:35:56.124Z,100144.38
2022-08-19T00:38:45.402Z,100139.53
2022-08-19T00:41:33.298Z,100139.30
2022-08-19T00:44:27.115Z,100133.64
2022-08-19T00:47:16.082Z,100140.45
2022-08-19T00:50:05.899Z,100136.69
2022-08-19T00:52:55.233Z,100142.67
2022-08-19T00:55:45.831Z,100142.42
2022-08-19T00:58:36.509Z,100143.29
2022-08-19T01:01:24.969Z,100143.03
2022-08-19T01:04:14.011Z,100140.89
2022-08-19T01:07:03.488Z,100144.98
2022-08-19T01:09:52.435Z,100144.73
2022-08-19T01:12:41.473Z,100152.33
2022-08-19T01:15:33.729Z,100152.07
2022-08-19T01:18:23.101Z,100152.63
2022-08-19T01:21:17.069Z,100148.87
2022-08-19T01:24:05.611Z,100154.55
2022-08-19T01:26:53.960Z,100144.29
2022-08-19T01:29:43.434Z,100141.35
2022-08-19T01:32:33.897Z,100151.92
2022-08-19T01:35:24.123Z,100159.52
2022-08-19T01:38:22.836Z,100159.28
2022-08-19T01:41:12.860Z,100156.31
2022-08-19T01:44:17.609Z,100167.69
2022-08-19T01:47:07.261Z,100162.84
2022-08-19T01:49:56.048Z,100173.43
2022-08-19T01:52:46.471Z,100164.25
2022-08-19T01:55:40.655Z,100171.84
2022-08-19T01:58:37.194Z,100166.16
2022-08-19T02:01:25.565Z,100172.95
2022-08-19T02:04:19.736Z,100179.72
2022-08-19T02:07:09.253Z,100175.69
2022-08-19T02:09:58.274Z,100173.53
2022-08-19T02:12:47.644Z,100181.12
2022-08-19T02:15:35.878Z,100176.27
2022-08-19T02:18:27.917Z,100165.70
2022-08-19T02:21:17.483Z,100170.58
2022-08-19T02:24:06.554Z,100168.17
2022-08-19T02:26:55.951Z,100173.31
2022-08-19T02:29:46.796Z,100176.86
2022-08-19T02:32:34.929Z,100176.55
2022-08-19T02:35:33.203Z,100167.91
2022-08-19T02:38:27.837Z,100171.98
2022-08-19T02:41:18.762Z,100165.52
2022-08-19T02:44:30.019Z,100172.01
2022-08-19T02:47:15.496Z,100174.44
2022-08-19T02:50:04.628Z,100177.44
2022-08-19T02:52:53.165Z,100181.48
2022-08-19T02:55:46.507Z,100188.27
2022-08-19T02:58:34.680Z,100185.02
2022-08-19T03:01:25.979Z,100187.19
2022-08-19T03:04:16.686Z,100187.19
2022-08-19T03:07:10.833Z,100184.75
2022-08-19T03:09:59.755Z,100184.20
2022-08-19T03:12:47.744Z,100184.76
2022-08-19T03:15:35.949Z,100188.83
2022-08-19T03:18:24.155Z,100190.17
2022-08-19T03:21:17.301Z,100182.36
2022-08-19T03:24:08.614Z,100191.80
2022-08-19T03:26:58.934Z,100192.88
2022-08-19T03:29:46.831Z,100188.56
2022-08-19T03:32:35.278Z,100182.63
2022-08-19T03:35:29.757Z,100192.61
2022-08-19T03:38:17.867Z,100199.91
2022-08-19T03:41:08.838Z,100206.41
2022-08-19T03:43:57.763Z,100207.74
2022-08-19T03:46:46.224Z,100207.74
2022-08-19T03:49:35.590Z,100209.91
2022-08-19T03:52:24.151Z,100207.20
2022-08-19T03:55:12.274Z,100209.91
2022-08-19T03:58:00.618Z,100205.33
2022-08-19T04:00:48.691Z,100220.72
2022-08-19T04:03:36.917Z,100211.53
2022-08-19T04:06:27.360Z,100216.93
2022-08-19T04:09:16.652Z,100217.47
2022-08-19T04:12:06.344Z,100214.77
2022-08-19T04:14:54.901Z,100219.91
2022-08-19T04:17:43.319Z,100217.75
2022-08-19T04:20:31.337Z,100216.67
2022-08-19T04:23:19.559Z,100220.70
2022-08-19T04:26:09.302Z,100227.76
2022-08-19T04:29:02.125Z,100226.39
2022-08-19T04:31:50.745Z,100227.75
2022-08-19T04:35:01.243Z,100221.80
2022-08-19T04:37:47.559Z,100222.05
2022-08-19T04:40:58.858Z,100222.03
2022-08-19T04:43:49.237Z,100217.45
2022-08-19T04:46:40.539Z,100216.34
2022-08-19T04:49:40.425Z,100228.77
2022-08-19T04:52:31.764Z,100224.43
2022-08-19T04:55:21.081Z,100231.19
2022-08-19T04:58:09.987Z,100231.70
2022-08-19T05:01:00.394Z,100235.75
2022-08-19T05:03:49.700Z,100236.27
2022-08-19T05:06:38.356Z,100231.62
2022-08-19T05:09:27.116Z,100244.31
2022-08-19T05:12:16.700Z,100238.58
2022-08-19T05:15:08.871Z,100241.53
2022-08-19T05:18:15.558Z,100245.53
2022-08-19T05:21:27.537Z,100241.15
2022-08-19T05:24:15.060Z,100234.08
2022-08-19T05:27:06.169Z,100240.52
2022-08-19T05:29:54.518Z,100230.70
2022-08-19T05:32:43.513Z,100222.50
2022-08-19T05:35:34.578Z,100220.53
2022-08-19T05:38:23.476Z,100229.89
2022-08-19T05:41:15.323Z,100224.91
2022-08-19T05:44:09.528Z,100221.03
2022-08-19T05:46:58.692Z,100226.61
2022-08-19T05:49:47.375Z,100234.33
2022-08-19T05:52:38.409Z,100226.33
2022-08-19T05:55:32.229Z,100232.67
2022-08-19T05:58:23.115Z,100232.27
2022-08-19T06:01:16.700Z,100229.66
2022-08-19T06:04:06.038Z,100233.27
2022-08-19T06:06:55.444Z,100230.66
2022-08-19T06:09:59.015Z,100225.27
2022-08-19T06:12:48.718Z,100228.06
2022-08-19T06:15:37.610Z,100228.14
2022-08-19T06:18:26.383Z,100224.38
2022-08-19T06:21:15.003Z,100225.22
2022-08-19T06:24:04.318Z,100225.73
2022-08-19T06:26:56.710Z,100230.11
2022-08-19T06:29:47.955Z,100230.34
2022-08-19T06:32:38.826Z,100226.50
2022-08-19T06:35:30.485Z,100231.63
2022-08-19T06:38:18.567Z,100223.47
2022-08-19T06:41:07.500Z,100226.64
2022-08-19T06:43:56.560Z,100226.33
2022-08-19T06:46:45.689Z,100224.37
2022-08-19T06:49:42.499Z,100233.00
2022-08-19T06:52:34.005Z,100229.12
2022-08-19T06:55:22.626Z,100219.27
2022-08-19T06:58:11.029Z,100226.77
2022-08-19T07:01:03.436Z,100228.59
2022-08-19T07:03:54.753Z,100228.48
2022-08-19T07:06:44.268Z,100225.67
2022-08-19T07:09:33.043Z,100215.28
2022-08-19T07:12:21.093Z,100220.64
2022-08-19T07:15:12.768Z,100223.56
2022-08-19T07:18:01.341Z,100223.26
2022-08-19T07:20:49.780Z,100214.42
2022-08-19T07:26:33.589Z,100207.72
2022-08-19T07:29:23.738Z,100210.30
2022-08-19T07:32:13.977Z,100213.19
2022-08-19T07:35:03.788Z,100216.06
2022-08-19T07:37:53.341Z,100218.14
2022-08-19T07:40:41.951Z,100215.06
2022-08-19T07:43:34.708Z,100221.48
2022-08-19T07:46:24.017Z,100224.81
2022-08-19T07:49:19.716Z,100220.11
2022-08-19T07:52:10.204Z,100222.48
2022-08-19T07:55:00.466Z,100215.54
2022-08-19T07:57:48.701Z,100216.92
2022-08-19T08:00:37.120Z,100219.41
2022-08-19T08:03:46.367Z,100209.00
2022-08-19T08:06:52.485Z,100211.64
2022-08-19T08:09:44.665Z,100210.25
2022-08-19T08:12:41.664Z,100204.48
2022-08-19T08:15:29.927Z,100211.75
2022-08-19T08:18:19.206Z,100202.92
2022-08-19T08:21:09.342Z,100200.31
2022-08-19T08:26:52.229Z,100203.23
2022-08-19T08:29:45.604Z,100190.23
2022-08-19T08:32:33.903Z,100194.22
2022-08-19T08:35:24.159Z,100188.39
2022-08-19T08:38:12.760Z,100188.02
2022-08-19T08:41:07.152Z,100194.45
2022-08-19T08:43:57.443Z,100175.27
2022-08-19T08:46:50.392Z,100175.34
2022-08-19T08:49:47.205Z,100173.48
2022-08-19T08:52:44.035Z,100167.66
2022-08-19T08:55:36.831Z,100179.30
2022-08-19T08:58:42.636Z,100170.08
2022-08-19T09:01:31.325Z,100159.78
2022-08-19T09:04:20.161Z,100164.52
2022-08-19T09:07:35.490Z,100177.41
2022-08-19T09:10:32.919Z,100174.72
2022-08-19T09:13:37.328Z,100170.38
2022-08-19T09:16:28.318Z,100162.54
2022-08-19T09:19:17.937Z,100178.60
2022-08-19T09:22:10.668Z,100165.14
2022-08-19T09:24:58.815Z,100163.84
2022-08-19T09:27:47.701Z,100163.79
2022-08-19T09:30:41.527Z,100158.21
2022-08-19T09:33:30.127Z,100161.23
2022-08-19T09:36:32.924Z,100163.52
2022-08-19T09:39:23.280Z,100150.33
2022-08-19T09:42:16.342Z,100152.55
2022-08-19T09:45:10.430Z,100160.99
2022-08-19T09:47:58.083Z,100158.23
2022-08-19T09:50:51.771Z,100161.11
2022-08-19T09:53:40.707Z,100160.83
2022-08-19T09:56:29.471Z,100148.38
2022-08-19T09:59:18.472Z,100151.17
2022-08-19T10:02:10.886Z,100149.80
2022-08-19T10:05:23.042Z,100156.27
2022-08-19T10:08:14.970Z,100156.13
2022-08-19T10:11:28.480Z,100150.93
2022-08-19T10:14:12.401Z,100142.00
2022-08-19T10:17:00.796Z,100139.87
2022-08-19T10:19:55.704Z,100146.03
2022-08-19T10:22:44.654Z,100135.91
2022-08-19T10:25:35.504Z,100138.28
2022-08-19T10:28:24.489Z,100140.59
2022-08-19T10:31:15.491Z,100128.37
2022-08-19T10:34:09.987Z,100132.34
2022-08-19T10:37:02.105Z,100124.22
2022-08-19T10:39:51.250Z,100129.94
2022-08-19T10:42:39.939Z,100118.20
2022-08-19T10:45:28.702Z,100117.91
2022-08-19T10:48:17.703Z,100111.62
2022-08-19T10:51:26.883Z,100113.64
2022-08-19T10:54:15.961Z,100107.14
2022-08-19T10:57:03.885Z,100111.63
2022-08-19T10:59:52.582Z,100104.20
2022-08-19T11:02:41.943Z,100109.80
2022-08-19T11:05:30.830Z,100113.45
2022-08-19T11:08:28.251Z,100105.64
2022-08-19T11:11:17.021Z,100102.11
2022-08-19T11:14:05.494Z,100108.87
2022-08-19T11:16:56.277Z,100101.78
2022-08-19T11:19:43.210Z,100104.18
2022-08-19T11:22:34.430Z,100093.53
2022-08-19T11:25:28.946Z,100088.46
2022-08-19T11:28:17.017Z,100087.71
2022-08-19T11:31:05.496Z,100087.30
2022-08-19T11:33:54.362Z,100086.12
2022-08-19T11:36:45.703Z,100089.67
2022-08-19T11:39:35.887Z,100085.74
2022-08-19T11:42:42.408Z,100077.48
2022-08-19T11:45:31.122Z,100076.71
2022-08-19T11:48:22.557Z,100068.81
2022-08-19T11:51:13.110Z,100069.62
2022-08-19T11:54:02.404Z,100070.42
2022-08-19T11:56:50.617Z,100070.03
2022-08-19T11:59:38.775Z,100069.23
2022-08-19T12:02:26.969Z,100074.77
2022-08-19T12:05:15.614Z,100072.41
2022-08-19T12:08:04.064Z,100068.84
2022-08-19T12:10:52.598Z,100058.16
2022-08-19T12:13:41.570Z,100056.18
2022-08-19T12:16:32.199Z,100054.59
2022-08-19T12:19:21.764Z,100047.47
2022-08-19T12:22:10.910Z,100043.11
2022-08-19T12:24:59.170Z,100045.11
2022-08-19T12:27:56.743Z,100046.70
2022-08-19T12:30:45.838Z,100047.84
2022-08-19T12:33:34.380Z,100045.87
2022-08-19T12:36:23.488Z,100053.77
2022-08-19T12:39:11.980Z,100042.23
2022-08-19T12:42:01.954Z,100042.62
2022-08-19T12:44:50.259Z,100041.44
2022-08-19T12:47:40.850Z,100040.27
2022-08-19T12:50:34.113Z,100043.44
2022-08-19T12:53:22.878Z,100035.50
2022-08-19T12:56:13.204Z,100029.16
2022-08-19T12:59:03.263Z,100033.53
2022-08-19T13:01:51.994Z,100028.41
2022-08-19T13:04:41.599Z,100024.88
2022-08-19T13:07:31.096Z,100026.47
2022-08-19T13:10:22.374Z,100026.86
2022-08-19T13:13:11.887Z,100018.16
2022-08-19T13:16:03.186Z,100025.28
2022-08-19T13:18:52.269Z,100022.12
2022-08-19T13:21:40.253Z,100029.66
2022-08-19T13:24:32.723Z,100019.33
2022-08-19T13:27:22.650Z,100024.48
2022-08-19T13:30:32.635Z,100020.13
2022-08-19T13:33:21.268Z,100019.32
2022-08-19T13:36:09.690Z,100020.84
2022-08-19T13:38:59.230Z,100012.55
2022-08-19T13:41:49.060Z,100011.75
2022-08-19T13:44:36.931Z,100017.34
2022-08-19T13:47:25.070Z,100014.95
2022-08-19T13:50:16.159Z,100022.86
2022-08-19T13:53:04.663Z,100020.45
2022-08-19T13:55:54.029Z,100008.56
2022-08-19T13:58:43.878Z,100009.34
2022-08-19T14:01:33.315Z,100010.13
2022-08-19T14:04:21.595Z,100012.47
2022-08-19T14:07:10.089Z,100008.92
2022-08-19T14:09:58.457Z,100001.80
2022-08-19T14:12:47.754Z,99998.63
2022-08-19T14:15:38.498Z,100004.15
2022-08-19T14:18:28.611Z,100006.86
2022-08-19T14:21:20.516Z,100009.20
2022-08-19T14:24:09.289Z,99999.72
2022-08-19T14:26:59.842Z,100002.45
2022-08-19T14:29:48.089Z,100005.98
2022-08-19T14:32:37.460Z,100007.56
2022-08-19T14:35:27.596Z,100011.48
2022-08-19T14:38:28.099Z,100007.13
2022-08-19T14:41:22.183Z,100009.02
2022-08-19T14:44:12.852Z,100001.83
2022-08-19T14:47:01.256Z,100004.14
2022-08-19T14:49:50.746Z,100003.69
2022-08-19T14:52:40.837Z,100002.11
2022-08-19T14:55:29.396Z,99997.80
2022-08-19T14:58:28.474Z,99989.86
2022-08-19T15:01:17.777Z,100004.83
2022-08-19T15:04:06.445Z,100000.92
2022-08-19T15:06:54.776Z,100000.16
2022-08-19T15:09:42.897Z,99993.84
2022-08-19T15:12:31.340Z,99987.95
2022-08-19T15:15:20.326Z,99991.52
2022-08-19T15:18:09.059Z,99986.39
2022-08-19T15:20:57.811Z,99989.16
2022-08-19T15:23:47.569Z,99982.05
2022-08-19T15:26:35.795Z,99982.05
2022-08-19T15:29:24.929Z,99985.59
2022-08-19T15:32:13.130Z,99985.59
2022-08-19T15:35:02.755Z,99983.22
2022-08-19T15:37:53.385Z,99987.54
2022-08-19T15:40:42.521Z,99986.72
2022-08-19T15:43:30.816Z,99980.78
2022-08-19T15:46:21.835Z,99987.86
2022-08-19T15:49:11.640Z,99987.05
2022-08-19T15:52:00.971Z,99986.23
2022-08-19T15:54:49.617Z,99979.06
2022-08-19T15:57:55.992Z,99973.08
2022-08-19T16:01:02.550Z,99985.68
2022-08-19T16:04:14.687Z,99975.34
2022-08-19T16:07:04.185Z,99981.64
2022-08-19T16:09:53.097Z,99975.69
2022-08-19T16:12:41.514Z,99977.58
2022-08-19T16:15:30.928Z,99976.75
2022-08-19T16:18:19.318Z,99982.14
2022-08-19T16:21:08.014Z,99972.19
2022-08-19T16:23:56.681Z,99974.11
2022-08-19T16:26:45.751Z,99974.81
2022-08-19T16:29:39.273Z,99975.14
2022-08-19T16:32:27.937Z,99972.66
2022-08-19T16:35:16.216Z,99967.45
2022-08-19T16:38:05.257Z,99979.92
2022-08-19T16:40:54.221Z,99972.73
2022-08-19T16:43:43.113Z,99972.55
2022-08-19T16:46:31.659Z,99979.55
2022-08-19T16:49:22.658Z,99980.53
2022-08-19T16:52:29.955Z,99978.39
2022-08-19T16:55:19.320Z,99986.49
2022-08-19T16:58:08.411Z,99987.13
2022-08-19T17:01:02.027Z,99982.67
2022-08-19T17:03:52.601Z,99993.45
2022-08-19T17:06:40.723Z,99992.48
2022-08-19T17:09:29.523Z,99998.61
2022-08-19T17:12:20.183Z,100003.56
2022-08-19T17:15:10.357Z,99997.50
2022-08-19T17:18:02.548Z,100000.83
2022-08-19T17:20:52.249Z,100003.37
2022-08-19T17:23:44.476Z,100003.95
2022-08-19T17:26:33.363Z,100011.22
2022-08-19T17:29:22.216Z,100009.05
2022-08-19T17:32:11.004Z,100028.08
2022-08-19T17:34:59.320Z,100025.90
2022-08-19T17:37:47.226Z,100025.21
2022-08-19T17:40:35.875Z,100028.45
2022-08-19T17:43:33.374Z,100026.57
2022-08-19T17:46:23.375Z,100037.34
2022-08-19T17:49:11.861Z,100042.56
2022-08-19T17:52:00.792Z,100054.47
2022-08-19T17:54:48.964Z,100051.80
2022-08-19T17:57:38.825Z,100058.95
2022-08-19T18:00:27.512Z,100057.87
2022-08-19T18:03:16.477Z,100069.38
2022-08-19T18:06:05.577Z,100078.45
2022-08-19T18:08:53.545Z,100083.66
2022-08-19T18:11:44.229Z,100082.50
2022-08-19T18:14:34.206Z,100093.19
2022-08-19T18:17:23.857Z,100098.34
2022-08-19T18:20:14.482Z,100098.82
2022-08-19T18:23:44.928Z,100100.89
2022-08-19T18:26:11.639Z,100100.58
2022-08-19T18:29:01.358Z,100103.06
2022-08-19T18:31:49.902Z,100107.19
2022-08-19T18:34:38.831Z,100103.39
2022-08-19T18:37:27.291Z,100107.41
2022-08-19T18:40:37.465Z,100107.95
2022-08-19T18:43:43.681Z,100116.77
2022-08-19T18:46:49.944Z,100112.97
2022-08-19T18:49:39.020Z,100113.84
2022-08-19T18:52:27.650Z,100112.45
2022-08-19T18:55:17.600Z,100122.03
2022-08-19T18:58:05.701Z,100120.64
2022-08-19T19:00:56.154Z,100116.05
2022-08-19T19:03:47.464Z,100115.02
2022-08-19T19:06:37.534Z,100122.63
2022-08-19T19:09:26.428Z,100119.63
2022-08-19T19:12:14.902Z,100111.97
2022-08-19T19:15:05.376Z,100116.80
2022-08-19T19:17:54.536Z,100113.02
2022-08-19T19:20:43.070Z,100110.48
2022-08-19T19:23:31.262Z,100110.69
2022-08-19T19:26:21.103Z,100114.77
2022-08-19T19:29:09.205Z,100107.06
2022-08-19T19:31:57.508Z,100111.13
2022-08-19T19:34:45.727Z,100119.89
2022-08-19T19:37:34.484Z,100126.69
2022-08-19T19:40:22.740Z,100113.98
2022-08-19T19:43:10.659Z,100123.17
2022-08-19T19:45:59.307Z,100125.28
2022-08-19T19:52:13.937Z,100123.27
2022-08-19T19:55:02.755Z,100126.98
2022-08-19T19:57:52.785Z,100132.64
2022-08-19T20:00:41.234Z,100140.69
2022-08-19T20:03:30.050Z,100141.69
2022-08-19T20:06:19.541Z,100142.66
2022-08-19T20:09:09.760Z,100147.52
2022-08-19T20:11:58.102Z,100146.88
2022-08-19T20:14:46.918Z,100148.19
2022-08-19T20:17:41.797Z,100141.26
2022-08-19T20:20:31.046Z,100150.76
2022-08-19T20:23:21.122Z,100141.47
2022-08-19T20:26:18.031Z,100139.22
2022-08-19T20:29:39.078Z,100148.23
2022-08-19T20:32:27.451Z,100143.28
2022-08-19T20:35:18.163Z,100148.43
2022-08-19T20:38:08.168Z,100152.76
2022-08-19T20:40:56.800Z,100152.44
2022-08-19T20:43:45.624Z,100150.48
2022-08-19T20:46:34.694Z,100151.77
2022-08-19T20:49:22.814Z,100149.53
2022-08-19T20:52:15.415Z,100153.54
2022-08-19T20:55:03.974Z,100146.94
2022-08-19T20:57:52.013Z,100159.13
2022-08-19T21:00:40.601Z,100159.62
2022-08-19T21:03:31.061Z,100152.70
2022-08-19T21:06:19.896Z,100161.67
2022-08-19T21:09:11.674Z,100156.97
2022-08-19T21:12:00.192Z,100160.14
2022-08-19T21:14:47.991Z,100156.28
2022-08-19T21:17:37.148Z,100156.56
2022-08-19T21:20:25.243Z,100164.20
2022-08-19T21:23:15.224Z,100157.41
2022-08-19T21:26:03.740Z,100159.00
2022-08-19T21:28:51.767Z,100154.17
2022-08-19T21:31:40.516Z,100163.24
2022-08-19T21:34:29.127Z,100161.14
2022-08-19T21:37:25.551Z,100162.87
2022-08-19T21:40:14.668Z,100159.98
2022-08-19T21:43:02.822Z,100161.41
2022-08-19T21:45:51.581Z,100162.35
2022-08-19T21:48:39.641Z,100161.36
2022-08-19T21:51:28.001Z,100154.11
2022-08-19T21:54:15.891Z,100157.75
2022-08-19T21:57:04.500Z,100153.24
2022-08-19T21:59:59.527Z,100155.77
2022-08-19T22:02:47.899Z,100155.10
2022-08-19T22:05:36.365Z,100151.38
2022-08-19T22:08:26.775Z,100153.41
2022-08-19T22:11:14.820Z,100145.36
2022-08-19T22:14:04.299Z,100142.76
2022-08-19T22:16:53.040Z,100145.56
2022-08-19T22:19:41.114Z,100143.28
2022-08-19T22:22:30.522Z,100144.19
2022-08-19T22:25:31.315Z,100146.53
2022-08-19T22:28:27.647Z,100136.58
2022-08-19T22:31:17.818Z,100141.31
2022-08-19T22:34:06.821Z,100143.03
2022-08-19T22:36:55.021Z,100142.36
2022-08-19T22:39:43.367Z,100140.86
2022-08-19T22:42:31.890Z,100145.59
2022-08-19T22:45:22.103Z,100146.52
2022-08-19T22:48:12.875Z,100138.45
2022-08-19T22:51:19.199Z,100140.17
2022-08-19T22:54:07.591Z,100138.92
2022-08-19T22:56:56.271Z,100130.58
2022-08-19T22:59:44.547Z,100131.47
2022-08-19T23:02:37.741Z,100124.23
2022-08-19T23:05:27.839Z,100122.41
2022-08-19T23:08:16.135Z,100124.13
2022-08-19T23:11:05.390Z,100123.94
2022-08-19T23:13:54.397Z,100129.16
2022-08-19T23:16:49.108Z,100130.07
2022-08-19T23:19:39.413Z,100122.80
2022-08-19T23:22:28.829Z,100124.22
2022-08-19T23:25:20.187Z,100121.29
2022-08-19T23:28:23.073Z,100117.56
2022-08-19T23:31:11.580Z,100114.65
2022-08-19T23:33:59.977Z,100120.97
2022-08-19T23:36:50.213Z,100112.63
2022-08-19T23:39:38.885Z,100118.91
2022-08-19T23:42:29.188Z,100124.16
2022-08-19T23:45:23.912Z,100116.09
2022-08-19T23:48:13.228Z,100117.79
2022-08-19T23:51:03.297Z,100119.49
2022-08-19T23:53:51.849Z,100110.02
2022-08-19T23:56:40.235Z,100111.71
2022-08-19T23:59:28.422Z,100109.08
